Saturday, January 19, 2019, 12:07 AM EST
Back to Local

KGFL, Floyd Bennett Memorial Airport

Location: Queensbury, NY, United States Lat: 43.333
Local Time: 12:07 AM EST ( 5:07 GMT) Lon: -73.617
Time Zone: US/Eastern Elev: 328 ft

Show me the last for .
Show Decoded

2019-01-18 23:53 METAR KGFL 190453Z AUTO 36003KT 10SM FEW042 SCT055 M04/M08 A3014 RMK AO2 SLP218
                 T10391078 400061083 =
2019-01-18 22:53 METAR KGFL 190353Z AUTO 02004KT 10SM OVC050 M01/M07 A3013 RMK AO2 SLP211
                 T10111072 =
2019-01-18 21:53 METAR KGFL 190253Z AUTO 24003KT 10SM OVC050 M02/M08 A3012 RMK AO2 SLP209
                 T10171078 53013 =
2019-01-18 20:53 METAR KGFL 190153Z AUTO 24004KT 10SM OVC055 M01/M08 A3010 RMK AO2 SLP205
                 T10061078 =
2019-01-18 19:53 METAR KGFL 190053Z AUTO 31005KT 10SM BKN047 BKN055 01/M07 A3009 RMK AO2 SLP198
                 T00061067 =
2019-01-18 18:53 METAR KGFL 182353Z AUTO 22005KT 10SM OVC044 00/M04 A3008 RMK AO2 SLP196 60000
                 T00001039 10000 21017 53022 =
2019-01-18 17:53 METAR KGFL 182253Z AUTO 00000KT 10SM BKN041 OVC048 M01/M03 A3004 RMK AO2 SLP182
                 T10061033 =
2019-01-18 16:53 METAR KGFL 182153Z AUTO 17005KT 10SM FEW034 OVC050 M01/M04 A3001 RMK AO2 SLP173
                 T10061039 =
2019-01-18 16:24 METAR KGFL 182124Z AUTO 17004KT 10SM SCT021 OVC050 00/M03 A3001 RMK AO2
                 T00001033 =
2019-01-18 15:53 METAR KGFL 182053Z AUTO 19004KT 10SM OVC022 00/M03 A3001 RMK AO2 SLP173 60000
                 T00001033 53008 =
2019-01-18 15:24 METAR KGFL 182024Z AUTO 19006KT 10SM SCT012 OVC023 M01/M04 A3000 RMK AO2
                 T10061039 =
2019-01-18 15:06 METAR KGFL 182006Z AUTO 18004KT 10SM BKN012 OVC024 M01/M04 A3000 RMK AO2
                 T10061039 =
2019-01-18 14:53 METAR KGFL 181953Z AUTO 20008KT 10SM SCT014 OVC024 M01/M04 A3000 RMK AO2 SNE1856
                 SLP169 P0000 T10061039 =
2019-01-18 14:14 METAR KGFL 181914Z AUTO 18008KT 9SM BKN025 OVC050 M01/M04 A2998 RMK AO2 SNE1856
                 P0000 T10111039 =
2019-01-18 13:53 METAR KGFL 181853Z AUTO 18008KT 6SM -SN SCT027 OVC050 M01/M04 A2998 RMK AO2
                 SNB24 SLP162 P0000 T10111044 =
2019-01-18 13:35 METAR KGFL 181835Z AUTO 18007KT 5SM -SN SCT013 OVC026 M01/M04 A2998 RMK AO2
                 SNB24 P0000 T10111044 =
2019-01-18 12:53 METAR KGFL 181753Z AUTO 21007KT 10SM BKN014 OVC028 M02/M05 A2999 RMK AO2 SNE44
                 SLP166 P0000 60000 T10221050 11022 21072 58028 =
2019-01-18 11:53 METAR KGFL 181653Z AUTO 18005KT 7SM -SN BKN018 OVC032 M03/M06 A3002 RMK AO2
                 SLP177 P0000 T10331061 =
2019-01-18 11:18 METAR KGFL 181618Z AUTO 19005KT 4SM -SN OVC018 M04/M07 A3004 RMK AO2 P0000
                 T10391067 =
2019-01-18 11:05 METAR KGFL 181605Z AUTO 17005KT 2SM -SN OVC019 M04/M07 A3005 RMK AO2 P0000
                 T10391067 =
2019-01-18 10:53 METAR KGFL 181553Z AUTO 16005KT 3SM -SN OVC019 M04/M07 A3006 RMK AO2 SNB35
                 SLP189 P0000 T10391067 =
2019-01-18 09:53 METAR KGFL 181453Z AUTO 00000KT 4SM HZ OVC019 M05/M08 A3007 RMK AO2 SNB37E49
                 SLP195 P0000 60000 T10501078 55004 =
2019-01-18 08:53 METAR KGFL 181353Z AUTO 00000KT 10SM OVC021 M06/M08 A3007 RMK AO2 SLP195
                 T10611083 =
2019-01-18 07:53 METAR KGFL 181253Z AUTO 00000KT 9SM OVC023 M07/M09 A3008 RMK AO2 SNE03 SLP199
                 P0000 T10721094 =
2019-01-18 06:53 METAR KGFL 181153Z AUTO 00000KT 6SM -SN BR OVC021 M07/M09 A3008 RMK AO2 SNB11
                 SLP200 P0000 60000 T10721094 11067 21083 56014 =
2019-01-18 06:08 METAR KGFL 181108Z AUTO 00000KT 9SM SCT012 OVC022 M07/M09 A3009 RMK AO2
                 T10721094 =
2019-01-18 05:53 METAR KGFL 181053Z AUTO 11003KT 9SM BKN011 OVC022 M07/M09 A3009 RMK AO2 SLP203
                 T10721094 =
2019-01-18 04:53 METAR KGFL 180953Z AUTO 00000KT 10SM OVC014 M07/M10 A3010 RMK AO2 SNE26 SLP205
                 P0000 T10671100 =
2019-01-18 04:45 METAR KGFL 180945Z AUTO 00000KT 10SM FEW010 OVC014 M07/M10 A3010 RMK AO2 SNE26
                 P0000 T10671100 =
2019-01-18 03:53 METAR KGFL 180853Z AUTO 02003KT 9SM -SN OVC019 M07/M11 A3012 RMK AO2 SLP213
                 P0000 60000 T10721106 58019 =
2019-01-18 03:05 METAR KGFL 180805Z AUTO 00000KT 4SM -SN SCT020 BKN025 OVC032 M08/M12 A3015 RMK
                 AO2 P0000 T10781117 =
2019-01-18 02:53 METAR KGFL 180753Z AUTO 00000KT 6SM -SN SCT027 OVC034 M08/M12 A3015 RMK AO2
                 SLP224 P0000 T10781117 =
2019-01-18 01:53 METAR KGFL 180653Z AUTO 19004KT 4SM -SN BKN039 OVC049 M08/M14 A3017 RMK AO2
                 SNB40 SLP230 P0000 T10781144 =
2019-01-18 00:53 METAR KGFL 180553Z AUTO 00000KT 10SM BKN044 OVC070 M08/M15 A3018 RMK AO2 SLP233
                 T10831150 11078 21089 58024 =

Support USWX by starting your Amazon purchase here.